Terminal Aerodrome Forecast
Issued by NWS Cleveland, OH

Home | Current Version | Previous Version | Text Only | Print | Product List | Glossary On
Versions: 1 2 3 4 5 6 7 8 9 10 11 12 13 14 15 16 17 18 19 20
000
FTUS41 KCLE 231700
TAFMFD
TAF
KMFD 231731Z 2318/2418 18005KT P6SM SKC
     FM241200 13006KT P6SM SKC=

USA.gov is the U.S. government's official web portal to all federal, state and local government web resources and services.